Time;durP1;ratioP1;P1;durP2;ratioP2;P2;SDS_P1;SDS_P2;PMS_P1;PMS_P2;Temp;Humidity;BMP_temperature;BMP_pressure;BME280_temperature;BME280_humidity;BME280_pressure;Samples;Min_cycle;Max_cycle;Signal;HPM_P1;HPM_P2
2021/08/26 00:00:10;;;;;;;12.67;7.43;;;15.50;79.10;;;;;;6203982;28;20539;-78
2021/08/26 00:06:33;;;;;;;10.13;7.47;;;15.50;79.00;;;;;;6201753;28;20520;-78
2021/08/26 00:09:35;;;;;;;11.75;7.43;;;15.50;79.10;;;;;;6203935;28;20414;-78
2021/08/26 00:12:38;;;;;;;8.73;7.70;;;15.80;79.30;;;;;;6204547;28;20421;-78
2021/08/26 00:15:42;;;;;;;11.80;7.07;;;15.30;79.40;;;;;;6204393;28;20430;-77
2021/08/26 00:18:43;;;;;;;12.05;7.38;;;15.40;79.70;;;;;;6203822;28;20430;-78
2021/08/26 00:21:48;;;;;;;8.55;7.38;;;15.30;79.70;;;;;;6204243;28;20465;-79
2021/08/26 00:24:50;;;;;;;10.07;7.40;;;15.40;79.10;;;;;;6203858;28;20501;-79
2021/08/26 00:27:51;;;;;;;10.23;6.93;;;15.30;80.20;;;;;;6203533;28;20498;-79
2021/08/26 00:30:53;;;;;;;12.87;7.03;;;15.30;80.00;;;;;;6203965;28;20497;-78
2021/08/26 00:33:55;;;;;;;9.23;6.88;;;15.70;80.00;;;;;;6204008;28;20931;-78
2021/08/26 00:36:58;;;;;;;11.18;8.07;;;15.40;79.40;;;;;;6203408;28;20446;-78
2021/08/26 00:40:00;;;;;;;11.80;8.43;;;15.50;79.00;;;;;;6202779;28;20560;-79
2021/08/26 00:43:02;;;;;;;11.43;8.27;;;15.50;79.50;;;;;;6203332;28;20847;-78
2021/08/26 00:46:04;;;;;;;13.77;7.97;;;15.10;79.50;;;;;;6203952;28;20442;-79
2021/08/26 00:49:07;;;;;;;9.75;6.93;;;15.10;79.80;;;;;;6204365;28;20438;-79
2021/08/26 00:52:11;;;;;;;9.50;7.70;;;15.00;79.80;;;;;;6203486;28;20909;-79
2021/08/26 00:55:14;;;;;;;9.13;7.30;;;14.90;79.80;;;;;;6204258;28;20501;-78
2021/08/26 00:58:16;;;;;;;12.23;8.13;;;14.90;80.10;;;;;;6204258;28;20498;-78
2021/08/26 01:01:29;;;;;;;10.35;7.82;;;14.90;79.70;;;;;;6202753;28;20422;-77
2021/08/26 01:04:34;;;;;;;10.07;7.87;;;14.80;79.80;;;;;;6203080;28;20474;-79
2021/08/26 01:07:43;;;;;;;10.45;7.53;;;14.80;79.90;;;;;;6203470;28;20490;-78
2021/08/26 01:10:48;;;;;;;12.10;8.35;;;14.80;79.80;;;;;;6202558;28;20989;-79
2021/08/26 01:13:52;;;;;;;10.73;7.45;;;14.80;79.60;;;;;;6204054;28;20994;-79
2021/08/26 01:16:54;;;;;;;9.80;7.65;;;14.70;79.90;;;;;;6202713;28;20419;-78
2021/08/26 01:19:57;;;;;;;9.35;7.13;;;14.70;79.60;;;;;;6202941;28;20510;-79
2021/08/26 01:23:01;;;;;;;9.57;7.75;;;14.60;79.40;;;;;;6203469;28;20492;-77
2021/08/26 01:26:06;;;;;;;11.13;7.43;;;14.50;79.60;;;;;;6203578;28;21067;-78
2021/08/26 01:29:08;;;;;;;11.63;6.82;;;14.50;79.70;;;;;;6202317;28;21064;-78
2021/08/26 01:32:10;;;;;;;11.57;7.80;;;14.70;80.30;;;;;;6202441;28;20446;-79
2021/08/26 01:35:13;;;;;;;8.88;7.32;;;14.70;80.10;;;;;;6201825;28;20474;-78
2021/08/26 01:38:22;;;;;;;9.35;6.85;;;14.40;80.00;;;;;;6202192;28;20441;-78
2021/08/26 01:41:36;;;;;;;9.13;7.40;;;14.40;80.20;;;;;;6202416;28;20411;-78
2021/08/26 01:44:38;;;;;;;12.35;7.55;;;14.50;80.30;;;;;;6201748;28;20508;-79
2021/08/26 01:47:40;;;;;;;10.32;7.10;;;14.40;80.20;;;;;;6201793;28;20831;-79
2021/08/26 01:50:43;;;;;;;8.63;6.60;;;14.40;79.90;;;;;;6201366;28;20485;-78
2021/08/26 01:53:45;;;;;;;8.30;7.20;;;14.40;80.00;;;;;;6203115;28;20912;-79
2021/08/26 01:56:48;;;;;;;11.35;7.65;;;14.40;80.40;;;;;;6201854;28;20422;-77
2021/08/26 01:59:50;;;;;;;10.65;7.68;;;14.40;79.80;;;;;;6201767;28;20454;-78
2021/08/26 02:02:52;;;;;;;9.00;7.05;;;14.40;79.80;;;;;;6201419;28;20415;-79
2021/08/26 02:05:54;;;;;;;10.70;7.63;;;14.40;79.50;;;;;;6202207;28;20522;-79
2021/08/26 02:08:56;;;;;;;9.00;7.28;;;14.30;79.40;;;;;;6201992;28;20501;-78
2021/08/26 02:11:59;;;;;;;9.40;7.77;;;14.50;79.50;;;;;;6202374;28;20434;-77
2021/08/26 02:15:01;;;;;;;11.73;7.22;;;14.20;79.80;;;;;;6202358;28;20574;-78
2021/08/26 02:18:03;;;;;;;8.52;7.55;;;14.20;80.30;;;;;;6202359;28;20513;-78
2021/08/26 02:21:05;;;;;;;9.27;7.67;;;14.20;79.90;;;;;;6202018;28;20538;-78
2021/08/26 02:24:07;;;;;;;9.27;7.05;;;14.20;80.10;;;;;;6201721;28;20445;-77
2021/08/26 02:27:10;;;;;;;14.37;7.23;;;14.20;79.50;;;;;;6201610;28;20861;-78
2021/08/26 02:30:12;;;;;;;13.30;7.63;;;14.10;79.10;;;;;;6201816;28;20489;-77
2021/08/26 02:33:14;;;;;;;9.20;7.38;;;14.20;79.50;;;;;;6201286;28;20516;-78
2021/08/26 02:36:16;;;;;;;11.30;6.90;;;14.40;79.80;;;;;;6201128;28;20428;-77
2021/08/26 02:39:18;;;;;;;9.67;7.17;;;14.20;79.70;;;;;;6201398;28;20466;-78
2021/08/26 02:42:21;;;;;;;9.85;7.85;;;14.30;79.30;;;;;;6202013;28;20530;-78
2021/08/26 02:45:23;;;;;;;10.63;7.78;;;14.30;79.10;;;;;;6200454;28;20829;-78
2021/08/26 02:48:25;;;;;;;8.95;7.53;;;14.40;79.20;;;;;;6220382;28;20501;-77
2021/08/26 02:51:26;;;;;;;7.93;6.97;;;14.50;79.90;;;;;;6216358;28;20422;-78
2021/08/26 02:54:28;;;;;;;10.18;7.43;;;14.60;79.70;;;;;;6201461;28;20438;-79
2021/08/26 02:57:32;;;;;;;8.80;7.57;;;14.70;79.50;;;;;;6201228;28;20434;-78
2021/08/26 03:00:33;;;;;;;8.75;7.38;;;14.70;79.40;;;;;;6200895;28;20518;-78
2021/08/26 03:03:35;;;;;;;11.52;6.55;;;15.10;79.10;;;;;;6203964;28;20505;-78
2021/08/26 03:06:37;;;;;;;8.60;6.83;;;14.80;79.40;;;;;;6205173;28;20532;-78
2021/08/26 03:09:39;;;;;;;7.63;6.15;;;14.90;79.20;;;;;;6205719;28;20859;-79
2021/08/26 03:12:42;;;;;;;8.60;7.30;;;15.00;78.90;;;;;;6205281;28;20512;-79
2021/08/26 03:15:44;;;;;;;7.95;6.43;;;15.00;78.80;;;;;;6205258;28;20417;-79
2021/08/26 03:18:47;;;;;;;8.85;6.55;;;15.10;78.80;;;;;;6205848;28;20426;-79
2021/08/26 03:21:48;;;;;;;8.35;6.78;;;15.20;78.80;;;;;;6205666;28;20481;-78
2021/08/26 03:24:50;;;;;;;8.87;6.83;;;15.20;78.50;;;;;;6204119;28;20489;-79
2021/08/26 03:27:54;;;;;;;8.63;6.85;;;15.40;78.50;;;;;;6207183;28;20482;-78
2021/08/26 03:30:56;;;;;;;8.52;6.57;;;15.30;78.10;;;;;;6209139;28;20521;-79
2021/08/26 03:33:57;;;;;;;8.55;6.80;;;15.30;78.10;;;;;;6205267;28;20466;-79
2021/08/26 03:36:59;;;;;;;10.63;6.82;;;15.30;78.00;;;;;;6204569;28;20442;-79
2021/08/26 03:40:01;;;;;;;10.43;7.43;;;15.30;78.40;;;;;;6204816;28;20472;-80
2021/08/26 03:43:04;;;;;;;8.47;6.70;;;15.70;78.50;;;;;;6204256;28;20489;-79
2021/08/26 03:46:06;;;;;;;9.20;7.03;;;15.20;78.50;;;;;;6204850;28;20479;-79
2021/08/26 03:49:08;;;;;;;10.70;7.50;;;15.10;78.70;;;;;;6205405;28;20498;-79
2021/08/26 03:52:10;;;;;;;7.95;6.63;;;15.10;78.30;;;;;;6204288;28;20504;-78
2021/08/26 03:55:11;;;;;;;8.77;7.18;;;15.10;78.90;;;;;;6204687;28;20414;-79
2021/08/26 03:58:15;;;;;;;11.77;7.50;;;15.40;78.80;;;;;;6205991;28;20493;-79
2021/08/26 04:01:16;;;;;;;9.18;8.18;;;14.90;79.20;;;;;;6203589;28;20892;-79
2021/08/26 04:04:18;;;;;;;13.02;7.35;;;14.90;79.10;;;;;;6204226;28;20426;-78
2021/08/26 04:07:20;;;;;;;9.63;7.85;;;14.90;79.30;;;;;;6203504;28;20511;-79
2021/08/26 04:10:22;;;;;;;10.07;7.53;;;14.90;79.30;;;;;;6204245;28;20855;-78
2021/08/26 04:13:25;;;;;;;11.27;8.20;;;15.00;79.20;;;;;;6202870;28;20516;-78
2021/08/26 04:16:27;;;;;;;12.25;7.85;;;14.90;79.10;;;;;;6203149;28;20488;-80
2021/08/26 04:19:29;;;;;;;9.38;7.38;;;14.90;79.50;;;;;;6203562;28;20493;-79
2021/08/26 04:22:31;;;;;;;11.97;8.07;;;14.90;79.20;;;;;;6203639;28;20499;-79
2021/08/26 04:25:33;;;;;;;8.82;7.93;;;14.90;79.00;;;;;;6203378;28;20419;-79
2021/08/26 04:28:36;;;;;;;9.73;7.53;;;14.90;79.20;;;;;;6203422;28;20500;-80
2021/08/26 04:31:38;;;;;;;9.35;7.80;;;14.90;79.60;;;;;;6203503;28;20958;-80
2021/08/26 04:34:39;;;;;;;10.32;8.73;;;14.80;79.50;;;;;;6203059;28;20433;-79
2021/08/26 04:37:41;;;;;;;11.15;8.50;;;14.80;79.80;;;;;;6204276;28;21040;-80
2021/08/26 04:40:43;;;;;;;9.63;8.50;;;14.80;79.50;;;;;;6203764;28;20422;-80
2021/08/26 04:43:46;;;;;;;10.75;8.90;;;14.80;79.80;;;;;;6202586;28;20489;-78
2021/08/26 04:46:48;;;;;;;12.48;9.10;;;14.80;80.40;;;;;;6203648;28;20494;-80
2021/08/26 04:49:50;;;;;;;12.85;9.30;;;14.90;80.00;;;;;;6203926;28;20593;-79
2021/08/26 04:52:52;;;;;;;10.43;9.15;;;15.10;80.10;;;;;;6203191;28;20832;-79
2021/08/26 04:55:53;;;;;;;9.95;8.63;;;14.90;79.70;;;;;;6202801;28;20843;-78
2021/08/26 04:58:57;;;;;;;12.75;8.85;;;15.00;79.50;;;;;;6203974;28;21038;-78
2021/08/26 05:01:58;;;;;;;11.23;8.68;;;15.10;79.80;;;;;;6204298;28;20493;-78
2021/08/26 05:05:00;;;;;;;12.88;8.52;;;15.80;79.70;;;;;;6203228;28;20498;-79
2021/08/26 05:08:02;;;;;;;15.57;9.95;;;15.70;79.50;;;;;;6203883;28;20477;-79
2021/08/26 05:11:04;;;;;;;11.48;8.88;;;15.40;78.90;;;;;;6203030;28;20442;-80
2021/08/26 05:14:07;;;;;;;12.15;9.52;;;15.50;78.90;;;;;;6203848;28;20877;-79
2021/08/26 05:17:09;;;;;;;15.85;10.38;;;15.60;78.10;;;;;;6202952;28;20419;-78
2021/08/26 05:20:12;;;;;;;8.63;7.72;;;15.60;78.10;;;;;;6203455;28;20473;-79
2021/08/26 05:23:14;;;;;;;12.35;8.93;;;15.70;77.90;;;;;;6203082;28;20422;-79
2021/08/26 05:26:16;;;;;;;13.10;9.48;;;15.90;77.80;;;;;;6201880;28;20469;-79
2021/08/26 05:29:19;;;;;;;13.32;9.55;;;15.90;77.60;;;;;;6203545;28;20504;-79
2021/08/26 05:32:21;;;;;;;11.45;8.90;;;16.00;77.60;;;;;;6203736;28;20422;-79
2021/08/26 05:35:23;;;;;;;11.23;8.98;;;16.10;77.20;;;;;;6203318;28;20422;-79
2021/08/26 05:38:24;;;;;;;12.82;8.70;;;16.20;77.50;;;;;;6203305;28;20559;-79
2021/08/26 05:41:26;;;;;;;11.10;8.48;;;16.20;77.10;;;;;;6203075;28;20468;-79
2021/08/26 05:44:30;;;;;;;10.63;8.30;;;16.40;77.20;;;;;;6203352;28;20469;-79
2021/08/26 05:47:31;;;;;;;12.80;10.23;;;16.20;76.90;;;;;;6202699;28;20466;-79
2021/08/26 05:50:33;;;;;;;14.30;8.50;;;16.20;76.90;;;;;;6202783;28;20528;-80
2021/08/26 05:53:35;;;;;;;10.77;9.40;;;16.20;76.70;;;;;;6205321;28;20646;-80
2021/08/26 05:56:37;;;;;;;16.65;9.77;;;16.20;76.60;;;;;;6205831;28;20425;-80
2021/08/26 05:59:41;;;;;;;13.93;9.40;;;16.30;76.70;;;;;;6206767;28;20418;-80
2021/08/26 06:02:42;;;;;;;11.27;8.15;;;16.40;76.10;;;;;;6204664;28;20525;-79
2021/08/26 06:05:44;;;;;;;12.90;9.73;;;16.60;76.20;;;;;;6187239;28;20941;-79
2021/08/26 06:08:46;;;;;;;10.05;8.07;;;16.70;75.30;;;;;;6198673;28;20424;-79
2021/08/26 06:11:48;;;;;;;11.53;8.37;;;16.80;75.20;;;;;;6182341;28;20423;-79
2021/08/26 06:14:51;;;;;;;9.48;8.40;;;16.80;74.80;;;;;;6199596;28;20521;-79
2021/08/26 06:17:53;;;;;;;10.52;8.30;;;16.90;74.90;;;;;;6207964;28;20479;-78
2021/08/26 06:20:55;;;;;;;10.93;7.95;;;16.90;75.30;;;;;;6214864;28;20457;-78
2021/08/26 06:23:58;;;;;;;8.90;7.97;;;17.00;74.90;;;;;;6204526;28;20420;-77
2021/08/26 06:27:01;;;;;;;9.98;8.35;;;17.00;75.00;;;;;;6186166;28;20457;-79
2021/08/26 06:30:06;;;;;;;13.38;8.18;;;17.10;76.50;;;;;;6181516;28;20843;-79
2021/08/26 06:33:08;;;;;;;10.35;7.88;;;17.20;74.50;;;;;;6180464;28;20501;-79
2021/08/26 06:36:10;;;;;;;10.45;8.50;;;17.20;73.90;;;;;;6177985;28;20419;-80
2021/08/26 06:39:12;;;;;;;11.98;8.55;;;17.20;74.10;;;;;;6184250;28;20501;-79
2021/08/26 06:42:13;;;;;;;10.05;8.57;;;17.20;73.70;;;;;;6197772;28;20438;-78
2021/08/26 06:45:17;;;;;;;13.63;8.45;;;17.10;74.10;;;;;;6198597;28;20433;-78
2021/08/26 06:48:19;;;;;;;12.85;8.82;;;17.10;73.90;;;;;;6200634;28;20524;-79
2021/08/26 06:51:21;;;;;;;12.45;8.75;;;17.10;73.80;;;;;;6201370;28;20430;-78
2021/08/26 06:54:22;;;;;;;8.80;7.90;;;17.00;73.70;;;;;;6203764;28;20808;-78
2021/08/26 06:57:27;;;;;;;11.30;8.27;;;17.00;74.00;;;;;;6203478;28;20430;-78
2021/08/26 07:00:31;;;;;;;14.32;8.90;;;17.10;73.60;;;;;;6203545;28;20455;-78
2021/08/26 07:03:32;;;;;;;13.57;8.48;;;17.30;74.40;;;;;;6204187;28;20418;-78
2021/08/26 07:06:34;;;;;;;11.77;8.68;;;17.10;74.30;;;;;;6203866;28;20501;-78
2021/08/26 07:09:36;;;;;;;12.00;8.35;;;17.20;73.70;;;;;;6205073;28;20462;-78
2021/08/26 07:12:38;;;;;;;10.70;8.13;;;17.20;73.50;;;;;;6202118;28;20425;-79
2021/08/26 07:15:41;;;;;;;9.75;8.25;;;17.20;73.70;;;;;;6179139;28;20424;-78
2021/08/26 07:18:43;;;;;;;12.13;8.57;;;17.20;73.60;;;;;;6178539;28;20500;-78
2021/08/26 07:21:45;;;;;;;11.15;9.13;;;17.20;73.70;;;;;;6179851;28;20494;-79
2021/08/26 07:24:46;;;;;;;10.32;8.60;;;17.20;74.10;;;;;;6179592;28;20420;-79
2021/08/26 07:27:48;;;;;;;12.77;8.65;;;17.20;74.00;;;;;;6181564;28;20420;-79
2021/08/26 07:30:52;;;;;;;10.85;8.55;;;17.30;74.20;;;;;;6182366;28;20436;-80
2021/08/26 07:33:53;;;;;;;12.25;9.82;;;17.30;74.00;;;;;;6186848;28;20467;-80
2021/08/26 07:36:55;;;;;;;10.40;9.30;;;17.30;73.90;;;;;;6184733;28;20483;-80
2021/08/26 07:39:57;;;;;;;10.70;9.30;;;17.30;74.50;;;;;;6181813;28;20423;-79
2021/08/26 07:42:59;;;;;;;14.25;9.93;;;17.60;75.30;;;;;;6180912;28;20476;-80
2021/08/26 07:46:02;;;;;;;9.75;8.73;;;17.20;75.70;;;;;;6181809;28;20442;-80
2021/08/26 07:49:05;;;;;;;13.20;9.73;;;17.20;77.10;;;;;;6184955;28;20424;-78
2021/08/26 07:52:07;;;;;;;12.73;10.05;;;17.20;77.40;;;;;;6186019;28;20572;-79
2021/08/26 07:55:09;;;;;;;14.27;11.73;;;17.20;78.30;;;;;;6185893;28;20486;-80
2021/08/26 07:58:11;;;;;;;12.38;11.18;;;17.10;78.50;;;;;;6187691;28;20440;-79
2021/08/26 08:01:14;;;;;;;12.10;10.80;;;17.00;79.40;;;;;;6185143;28;20416;-79
2021/08/26 08:04:16;;;;;;;20.60;12.10;;;17.00;80.00;;;;;;6185708;28;20474;-78
2021/08/26 08:07:18;;;;;;;14.30;12.82;;;17.00;80.20;;;;;;6183330;28;20499;-78
2021/08/26 08:10:20;;;;;;;14.18;12.52;;;17.00;80.80;;;;;;6184709;28;20507;-79
2021/08/26 08:13:22;;;;;;;14.38;12.35;;;17.10;80.40;;;;;;6193670;28;20932;-80
2021/08/26 08:16:25;;;;;;;14.13;12.27;;;17.10;80.90;;;;;;6207749;28;20508;-79
2021/08/26 08:19:27;;;;;;;18.75;13.82;;;17.10;80.10;;;;;;6209056;28;20489;-78
2021/08/26 08:22:29;;;;;;;17.67;13.27;;;17.10;80.40;;;;;;6207647;28;20460;-78
2021/08/26 08:25:31;;;;;;;15.90;14.25;;;17.00;80.90;;;;;;6207572;28;20450;-78
2021/08/26 08:28:33;;;;;;;15.40;13.68;;;17.00;81.20;;;;;;6205271;28;20485;-78
2021/08/26 08:31:36;;;;;;;16.30;14.55;;;17.00;81.40;;;;;;6207120;28;20512;-78
2021/08/26 08:34:38;;;;;;;15.52;13.95;;;17.00;82.00;;;;;;6205061;28;20431;-78
2021/08/26 08:37:40;;;;;;;17.10;15.00;;;17.00;81.60;;;;;;6205237;28;20430;-78
2021/08/26 08:40:45;;;;;;;16.63;14.73;;;17.00;81.80;;;;;;6205273;28;20430;-78
2021/08/26 08:43:48;;;;;;;19.60;16.30;;;16.90;82.40;;;;;;6206561;28;20464;-78
2021/08/26 08:46:54;;;;;;;18.63;16.45;;;16.90;82.50;;;;;;6206093;28;20461;-78
2021/08/26 08:49:56;;;;;;;18.40;16.50;;;16.90;82.40;;;;;;6206851;28;20482;-78
2021/08/26 08:53:00;;;;;;;20.80;16.15;;;16.80;82.90;;;;;;6206705;28;20546;-78
2021/08/26 08:56:04;;;;;;;21.38;16.45;;;16.80;83.50;;;;;;6205932;28;20526;-78
2021/08/26 08:59:06;;;;;;;20.60;16.52;;;16.80;83.60;;;;;;6206623;28;20903;-78
2021/08/26 09:02:09;;;;;;;17.73;14.77;;;16.70;83.80;;;;;;6206180;28;20446;-78
2021/08/26 09:05:11;;;;;;;22.15;15.85;;;16.70;83.60;;;;;;6204539;28;20464;-78
2021/08/26 09:08:14;;;;;;;17.70;15.85;;;16.70;84.00;;;;;;6204938;28;20446;-78
2021/08/26 09:11:18;;;;;;;17.02;15.00;;;16.70;84.20;;;;;;6204436;28;20467;-78
2021/08/26 09:14:24;;;;;;;16.00;14.00;;;16.70;84.30;;;;;;6188444;28;20574;-78
2021/08/26 09:17:27;;;;;;;16.37;14.67;;;16.70;84.00;;;;;;6179943;28;20624;-78
2021/08/26 09:20:29;;;;;;;15.68;13.70;;;16.70;84.10;;;;;;6180628;28;20416;-78
2021/08/26 09:23:32;;;;;;;15.90;14.20;;;16.70;84.70;;;;;;6179974;28;20495;-78
2021/08/26 09:26:34;;;;;;;15.93;14.32;;;16.70;84.10;;;;;;6179083;28;20953;-78
2021/08/26 09:30:00;;;;;;;17.70;15.82;;;16.70;84.40;;;;;;6181018;28;20952;-78
2021/08/26 09:33:03;;;;;;;15.45;13.65;;;16.70;84.30;;;;;;6180076;28;20498;-78
2021/08/26 09:36:05;;;;;;;16.00;14.30;;;16.70;84.00;;;;;;6179790;28;20458;-78
2021/08/26 09:39:09;;;;;;;15.40;13.80;;;16.80;84.50;;;;;;6178895;28;20502;-78
2021/08/26 09:42:11;;;;;;;13.10;11.70;;;16.80;84.90;;;;;;6179675;28;21022;-78
2021/08/26 09:45:20;;;;;;;15.67;13.37;;;16.90;84.50;;;;;;6179713;28;20428;-78
2021/08/26 09:48:23;;;;;;;11.88;10.68;;;17.00;84.20;;;;;;6183367;28;21053;-79
2021/08/26 09:51:25;;;;;;;13.52;12.20;;;17.00;83.60;;;;;;6184807;28;20465;-78
2021/08/26 09:54:32;;;;;;;14.23;12.57;;;17.00;84.20;;;;;;6195695;28;20927;-78
2021/08/26 09:57:36;;;;;;;14.53;12.90;;;17.00;83.30;;;;;;6206175;28;20477;-78
2021/08/26 10:00:39;;;;;;;13.43;12.00;;;17.00;83.80;;;;;;6204351;28;20414;-77
2021/08/26 10:03:43;;;;;;;10.82;9.68;;;17.00;83.80;;;;;;6204819;28;20437;-78
2021/08/26 10:06:44;;;;;;;11.68;10.48;;;17.00;83.30;;;;;;6207243;28;20534;-79
2021/08/26 10:09:47;;;;;;;10.47;8.93;;;17.00;84.00;;;;;;6209604;28;21017;-79
2021/08/26 10:12:49;;;;;;;7.93;7.10;;;17.00;83.30;;;;;;6205750;28;20428;-79
2021/08/26 10:15:51;;;;;;;10.65;9.60;;;17.00;83.60;;;;;;6185635;28;20451;-78
2021/08/26 10:18:55;;;;;;;9.97;8.27;;;17.10;84.30;;;;;;6180512;28;20474;-78
2021/08/26 10:21:57;;;;;;;11.30;9.32;;;17.10;83.10;;;;;;6182707;28;20583;-79
2021/08/26 10:25:00;;;;;;;6.13;5.53;;;17.20;84.40;;;;;;6182983;28;20436;-78
2021/08/26 10:28:02;;;;;;;7.70;6.90;;;17.10;82.10;;;;;;6186168;28;20484;-79
2021/08/26 10:31:23;;;;;;;6.68;5.97;;;17.20;83.20;;;;;;6183859;28;20475;-79
2021/08/26 10:34:28;;;;;;;7.65;6.85;;;17.20;82.90;;;;;;6182336;28;20439;-78
2021/08/26 10:37:42;;;;;;;5.82;5.28;;;17.40;83.60;;;;;;6183493;28;20435;-79
2021/08/26 10:40:44;;;;;;;6.28;5.45;;;17.60;82.90;;;;;;6182822;28;20427;-79
2021/08/26 10:43:54;;;;;;;7.22;5.82;;;17.80;82.50;;;;;;6184677;28;20424;-79
2021/08/26 10:46:57;;;;;;;7.78;5.93;;;18.00;81.30;;;;;;6184495;28;20420;-78
2021/08/26 10:50:17;;;;;;;8.05;6.60;;;18.00;80.60;;;;;;6185004;28;20432;-78
2021/08/26 10:53:28;;;;;;;8.63;7.82;;;18.10;80.40;;;;;;6183790;28;20419;-79
2021/08/26 10:56:35;;;;;;;7.72;6.72;;;18.20;80.60;;;;;;6183436;28;20431;-77
2021/08/26 10:59:37;;;;;;;8.23;7.30;;;18.30;79.30;;;;;;6184191;28;20432;-78
2021/08/26 11:02:41;;;;;;;8.23;7.43;;;18.30;80.30;;;;;;6182584;28;20526;-79
2021/08/26 11:05:47;;;;;;;8.60;7.80;;;18.60;79.60;;;;;;6182907;28;20499;-80
2021/08/26 11:08:51;;;;;;;8.00;7.20;;;18.80;79.50;;;;;;6183448;28;20452;-78
2021/08/26 11:11:58;;;;;;;11.52;8.82;;;18.90;78.50;;;;;;6183165;28;20416;-78
2021/08/26 11:15:01;;;;;;;8.43;7.40;;;18.90;79.30;;;;;;6203698;28;20757;-78
2021/08/26 11:18:27;;;;;;;8.13;7.32;;;18.90;79.00;;;;;;6209098;28;20584;-78
2021/08/26 11:22:01;;;;;;;8.23;7.40;;;19.00;79.50;;;;;;6208446;28;20430;-77
2021/08/26 11:25:03;;;;;;;8.05;7.13;;;19.00;78.90;;;;;;6210455;28;20477;-78
2021/08/26 11:28:33;;;;;;;7.25;6.55;;;18.90;77.10;;;;;;6210133;28;20477;-78
2021/08/26 11:31:34;;;;;;;7.90;7.18;;;18.70;77.60;;;;;;6205258;28;20449;-77
2021/08/26 11:34:39;;;;;;;8.65;6.53;;;18.70;79.20;;;;;;6211209;28;20434;-78
2021/08/26 11:37:42;;;;;;;8.32;6.47;;;18.80;80.20;;;;;;6213048;28;20934;-78
2021/08/26 11:40:44;;;;;;;7.22;6.30;;;19.10;78.80;;;;;;6203503;28;20414;-78
2021/08/26 11:43:46;;;;;;;14.80;6.30;;;19.50;76.40;;;;;;6206046;28;21027;-77
2021/08/26 11:46:48;;;;;;;6.20;5.57;;;19.60;75.50;;;;;;6205947;28;20525;-77
2021/08/26 11:49:50;;;;;;;6.28;5.38;;;20.00;77.40;;;;;;6207063;28;20886;-77
2021/08/26 11:52:56;;;;;;;7.47;5.57;;;20.30;72.70;;;;;;6243463;22;20573;-76
2021/08/26 11:55:57;;;;;;;6.05;5.45;;;20.50;73.00;;;;;;6248868;28;20500;-76
2021/08/26 11:58:59;;;;;;;7.87;6.67;;;20.80;73.20;;;;;;6249284;28;20480;-76
2021/08/26 12:02:19;;;;;;;7.60;5.43;;;21.30;71.30;;;;;;6249321;28;20556;-76
2021/08/26 12:05:21;;;;;;;6.53;5.40;;;21.50;68.00;;;;;;6248915;28;20443;-76
2021/08/26 12:08:24;;;;;;;6.63;4.97;;;21.70;66.30;;;;;;6248651;28;20411;-76
2021/08/26 12:11:27;;;;;;;5.70;4.13;;;21.80;66.70;;;;;;6249244;28;20490;-75
2021/08/26 12:14:34;;;;;;;5.10;4.10;;;22.00;65.80;;;;;;6266588;28;20435;-77
2021/08/26 12:17:37;;;;;;;8.05;4.57;;;22.10;64.90;;;;;;6272999;28;20416;-76
2021/08/26 12:20:43;;;;;;;4.83;3.97;;;22.10;65.50;;;;;;6273001;28;20420;-76
2021/08/26 12:23:49;;;;;;;4.72;3.60;;;22.30;64.20;;;;;;6272679;28;21258;-76
2021/08/26 12:26:51;;;;;;;5.57;4.10;;;22.70;63.50;;;;;;6273124;28;20444;-77
2021/08/26 12:29:54;;;;;;;6.82;4.30;;;22.90;61.00;;;;;;6273130;28;20549;-76
2021/08/26 12:33:06;;;;;;;4.13;3.40;;;22.90;57.90;;;;;;6272909;28;20491;-76
2021/08/26 12:36:20;;;;;;;5.53;4.20;;;22.70;59.90;;;;;;6271753;28;20466;-76
2021/08/26 12:39:26;;;;;;;4.10;3.10;;;22.70;59.80;;;;;;6272613;28;20506;-76
2021/08/26 12:42:28;;;;;;;5.95;3.15;;;22.90;57.40;;;;;;6273554;28;20448;-77
2021/08/26 12:45:31;;;;;;;4.25;3.15;;;23.10;58.50;;;;;;6272691;28;20418;-76
2021/08/26 12:48:35;;;;;;;3.42;3.10;;;22.80;60.60;;;;;;6272605;28;20505;-76
2021/08/26 12:51:52;;;;;;;5.38;3.20;;;22.70;60.70;;;;;;6272606;28;20417;-76
2021/08/26 12:54:59;;;;;;;4.10;3.22;;;22.80;62.80;;;;;;6271896;28;20540;-76
2021/08/26 12:58:13;;;;;;;4.90;3.33;;;23.10;59.60;;;;;;6272907;28;20570;-76
2021/08/26 13:01:17;;;;;;;3.63;2.80;;;23.40;59.20;;;;;;6271917;28;20471;-76
2021/08/26 13:04:22;;;;;;;3.10;2.50;;;23.70;57.20;;;;;;6271795;28;20980;-76
2021/08/26 13:07:24;;;;;;;4.30;3.22;;;23.90;56.60;;;;;;6272343;28;20413;-76
2021/08/26 13:10:28;;;;;;;4.20;3.20;;;23.90;55.50;;;;;;6272315;28;20437;-76
2021/08/26 13:13:30;;;;;;;3.20;2.42;;;23.60;56.40;;;;;;6262574;28;20468;-76
2021/08/26 13:16:32;;;;;;;4.30;3.17;;;23.40;57.40;;;;;;6246707;28;20423;-77
2021/08/26 13:19:34;;;;;;;7.57;2.83;;;23.10;57.90;;;;;;6247232;28;20517;-77
2021/08/26 13:22:38;;;;;;;4.35;3.17;;;22.90;59.20;;;;;;6247110;28;20495;-76
2021/08/26 13:25:41;;;;;;;4.57;2.70;;;22.70;59.40;;;;;;6246992;28;20442;-76
2021/08/26 13:28:43;;;;;;;6.20;2.83;;;22.50;60.50;;;;;;6246685;28;20445;-76
2021/08/26 13:31:45;;;;;;;4.50;2.70;;;22.10;60.50;;;;;;6246634;28;20469;-76
2021/08/26 13:34:47;;;;;;;3.65;3.05;;;22.10;62.00;;;;;;6245922;28;20530;-76
2021/08/26 13:37:49;;;;;;;5.03;2.95;;;21.90;61.40;;;;;;6247196;28;20458;-76
2021/08/26 13:40:53;;;;;;;4.50;3.40;;;21.80;62.30;;;;;;6246379;28;20419;-75
2021/08/26 13:43:55;;;;;;;4.03;2.88;;;21.70;64.10;;;;;;6246088;28;20505;-75
2021/08/26 13:46:57;;;;;;;4.88;2.80;;;21.70;64.80;;;;;;6245162;28;20486;-75
2021/08/26 13:49:59;;;;;;;3.53;3.03;;;21.70;64.80;;;;;;6244806;28;20887;-75
2021/08/26 13:53:01;;;;;;;4.73;3.13;;;21.40;62.60;;;;;;6220666;28;20417;-75
2021/08/26 13:56:04;;;;;;;3.00;2.58;;;21.20;64.00;;;;;;6220395;28;20491;-75
2021/08/26 13:59:07;;;;;;;4.70;2.60;;;21.20;64.90;;;;;;6220654;28;20502;-75
2021/08/26 14:02:09;;;;;;;3.60;2.60;;;21.20;64.30;;;;;;6220594;28;20435;-74
2021/08/26 14:05:11;;;;;;;4.13;3.30;;;21.20;65.10;;;;;;6220211;28;20420;-75
2021/08/26 14:08:13;;;;;;;3.55;2.67;;;21.30;64.80;;;;;;6220027;28;20991;-75
2021/08/26 14:11:16;;;;;;;3.08;2.75;;;21.40;64.20;;;;;;6220402;28;20456;-75
2021/08/26 14:14:18;;;;;;;5.18;2.83;;;21.50;64.00;;;;;;6251272;28;20428;-75
2021/08/26 14:17:20;;;;;;;3.83;2.30;;;21.70;64.20;;;;;;6269263;28;20911;-75
2021/08/26 14:20:22;;;;;;;3.47;2.65;;;22.20;62.10;;;;;;6269110;28;20511;-75
2021/08/26 14:23:25;;;;;;;4.28;2.25;;;22.40;61.20;;;;;;6269291;28;20562;-75
2021/08/26 14:26:28;;;;;;;4.50;2.63;;;22.60;62.20;;;;;;6269115;28;20428;-75
2021/08/26 14:29:30;;;;;;;3.95;2.67;;;22.60;61.30;;;;;;6269053;28;20441;-75
2021/08/26 14:32:32;;;;;;;3.10;2.30;;;22.50;61.40;;;;;;6268908;28;20555;-75
2021/08/26 14:35:33;;;;;;;4.60;2.60;;;22.40;61.90;;;;;;6268453;28;20421;-75
2021/08/26 14:38:35;;;;;;;5.75;2.55;;;22.40;62.20;;;;;;6269321;28;20483;-75
2021/08/26 14:41:38;;;;;;;5.10;2.78;;;21.30;61.10;;;;;;6268927;28;20457;-75
2021/08/26 14:44:40;;;;;;;2.88;2.05;;;23.10;60.70;;;;;;6268856;28;20486;-75
2021/08/26 14:47:42;;;;;;;6.30;2.83;;;23.20;58.00;;;;;;6268544;28;20552;-75
2021/08/26 14:50:44;;;;;;;3.72;2.60;;;23.10;57.60;;;;;;6269068;28;20554;-75
2021/08/26 14:53:46;;;;;;;3.40;2.53;;;23.00;58.90;;;;;;6228041;28;20478;-74
2021/08/26 14:56:49;;;;;;;4.45;2.95;;;23.00;58.60;;;;;;6219932;28;20510;-75
2021/08/26 14:59:51;;;;;;;3.63;2.42;;;22.80;59.90;;;;;;6227446;28;20492;-75
2021/08/26 15:02:53;;;;;;;4.50;2.60;;;22.70;60.70;;;;;;6227621;28;20894;-75
2021/08/26 15:05:55;;;;;;;4.97;3.72;;;22.90;60.10;;;;;;6227953;28;20432;-75
2021/08/26 15:08:57;;;;;;;2.70;2.50;;;23.00;59.90;;;;;;6227868;28;20420;-75
2021/08/26 15:12:00;;;;;;;3.83;2.22;;;23.00;58.20;;;;;;6227581;28;20495;-76
2021/08/26 15:15:04;;;;;;;4.45;3.40;;;22.80;58.80;;;;;;6270045;28;20507;-75
2021/08/26 15:18:07;;;;;;;3.20;2.90;;;22.60;60.70;;;;;;6277191;28;20425;-75
2021/08/26 15:21:09;;;;;;;3.20;2.67;;;22.50;60.00;;;;;;6276742;28;20409;-75
2021/08/26 15:24:11;;;;;;;4.03;2.53;;;22.60;60.60;;;;;;6277090;28;20551;-75
2021/08/26 15:27:14;;;;;;;4.82;2.70;;;22.70;60.30;;;;;;6276132;28;20452;-75
2021/08/26 15:30:18;;;;;;;3.85;2.50;;;22.90;60.10;;;;;;6277122;28;20450;-75
2021/08/26 15:33:20;;;;;;;3.88;2.58;;;22.70;60.60;;;;;;6276191;28;20786;-75
2021/08/26 15:36:24;;;;;;;6.70;3.10;;;22.60;60.00;;;;;;6276322;28;20532;-75
2021/08/26 15:39:26;;;;;;;3.78;2.38;;;22.50;61.30;;;;;;6276293;28;20417;-75
2021/08/26 15:42:30;;;;;;;5.30;2.40;;;22.60;60.90;;;;;;6276848;28;20923;-75
2021/08/26 15:45:31;;;;;;;3.83;2.63;;;22.70;59.40;;;;;;6276135;28;20492;-75
2021/08/26 15:48:33;;;;;;;3.20;2.20;;;22.80;58.70;;;;;;6276785;28;20413;-75